Time;durP1;ratioP1;P1;durP2;ratioP2;P2;SDS_P1;SDS_P2;PMS_P1;PMS_P2;Temp;Humidity;BMP_temperature;BMP_pressure;BME280_temperature;BME280_humidity;BME280_pressure;Samples;Min_cycle;Max_cycle;Signal;HPM_P1;HPM_P2
2021/08/31 00:00:16;;;;;;;12.87;7.73;;;;;;;-140.05;100.00;61859.38;5041896;28;20443;-71
2021/08/31 00:02:43;;;;;;;11.57;7.37;;;;;;;-140.05;100.00;61859.38;5063221;28;20438;-71
2021/08/31 00:05:12;;;;;;;15.47;7.10;;;;;;;-140.05;100.00;61859.38;5041359;28;20483;-70
2021/08/31 00:07:40;;;;;;;11.97;7.47;;;;;;;-140.05;100.00;61859.38;5047338;28;20442;-70
2021/08/31 00:10:09;;;;;;;13.80;7.97;;;;;;;-140.05;100.00;61859.38;5050305;28;20479;-70
2021/08/31 00:12:37;;;;;;;12.53;7.17;;;;;;;-140.05;100.00;61859.38;5048537;28;20829;-69
2021/08/31 00:15:05;;;;;;;10.80;7.20;;;;;;;22.30;33.98;94966.44;5031125;28;20829;-70
2021/08/31 00:17:33;;;;;;;10.33;7.20;;;;;;;16.17;58.54;95118.56;5043905;28;20430;-71
2021/08/31 00:20:00;;;;;;;12.70;7.47;;;;;;;15.99;58.92;95095.53;5032324;28;20444;-71
2021/08/31 00:22:28;;;;;;;13.00;6.80;;;;;;;16.19;59.02;95116.44;5042141;28;20438;-70
2021/08/31 00:24:55;;;;;;;16.80;6.87;;;;;;;16.17;59.07;95121.22;5033953;28;20829;-70
2021/08/31 00:27:22;;;;;;;13.87;7.37;;;;;;;16.16;58.71;95122.28;5030039;28;21035;-70
2021/08/31 00:29:49;;;;;;;17.30;7.23;;;;;;;16.15;58.97;95118.06;5044618;28;20521;-71
2021/08/31 00:32:16;;;;;;;12.23;7.17;;;;;;;16.30;58.70;95123.16;5049851;28;20439;-70
2021/08/31 00:34:42;;;;;;;9.93;6.53;;;;;;;16.28;58.94;95119.25;5037519;28;20518;-71
2021/08/31 00:37:09;;;;;;;12.77;7.73;;;;;;;16.30;59.00;95122.34;5047610;28;20443;-70
2021/08/31 00:39:36;;;;;;;15.50;6.57;;;;;;;16.22;59.53;95115.88;5050411;28;20869;-72
2021/08/31 00:42:03;;;;;;;10.23;6.10;;;;;;;16.29;59.19;95134.81;5056144;28;20467;-70
2021/08/31 00:44:30;;;;;;;10.53;6.50;;;;;;;16.32;58.30;95131.59;5049944;28;20452;-71
2021/08/31 00:47:05;;;;;;;13.00;6.80;;;;;;;16.27;58.88;95134.31;5031743;28;20435;-71
2021/08/31 00:49:32;;;;;;;10.13;6.53;;;;;;;16.28;58.79;95135.88;5047084;28;20508;-71
2021/08/31 00:52:00;;;;;;;13.07;6.50;;;;;;;16.25;59.06;95141.75;5036472;28;20443;-70
2021/08/31 00:54:29;;;;;;;11.37;6.77;;;;;;;16.27;59.39;95134.31;5044419;28;20447;-72
2021/08/31 00:57:03;;;;;;;10.90;6.83;;;;;;;16.24;58.90;95132.22;5042513;28;20508;-70
2021/08/31 00:59:30;;;;;;;10.60;6.53;;;;;;;16.34;59.22;95131.31;5050413;28;20533;-71
2021/08/31 01:02:00;;;;;;;12.70;7.37;;;;;;;16.29;59.63;95137.47;5057792;28;20457;-71
2021/08/31 01:04:29;;;;;;;13.40;7.10;;;;;;;16.22;58.73;95132.50;5059010;28;20435;-70
2021/08/31 01:06:57;;;;;;;10.40;6.40;;;;;;;16.24;58.86;95135.66;5054576;28;20431;-71
2021/08/31 01:09:25;;;;;;;10.93;6.13;;;;;;;16.18;58.84;95130.72;5053099;28;20490;-71
2021/08/31 01:11:54;;;;;;;15.93;7.30;;;;;;;16.22;59.79;95147.59;5049341;28;20435;-69
2021/08/31 01:14:23;;;;;;;11.37;6.73;;;;;;;16.12;59.85;95137.16;5034285;28;20444;-71
2021/08/31 01:16:50;;;;;;;13.63;6.80;;;;;;;16.04;60.75;95140.41;5029372;28;20439;-70
2021/08/31 01:19:23;;;;;;;10.97;6.73;;;;;;;16.16;59.98;95144.25;5029668;28;20456;-70
2021/08/31 01:21:51;;;;;;;14.37;6.80;;;;;;;16.02;59.66;95142.56;5034057;28;20451;-69
2021/08/31 01:24:18;;;;;;;13.60;7.03;;;;;;;15.96;59.40;95143.69;5045921;28;20447;-71
2021/08/31 01:26:49;;;;;;;11.07;7.27;;;;;;;15.99;59.65;95143.91;5046719;28;20450;-72
2021/08/31 01:29:16;;;;;;;11.27;6.30;;;;;;;16.01;58.68;95146.25;5049529;28;20511;-72
2021/08/31 01:31:43;;;;;;;10.60;6.47;;;;;;;15.92;58.17;95142.66;5034907;28;20980;-71
2021/08/31 01:34:10;;;;;;;11.50;6.40;;;;;;;15.99;58.53;95148.41;5049509;28;20439;-71
2021/08/31 01:36:37;;;;;;;10.53;6.20;;;;;;;15.92;58.81;95153.25;5034984;28;20869;-71
2021/08/31 01:39:05;;;;;;;11.73;6.20;;;;;;;16.01;58.24;95146.25;5049961;28;20526;-71
2021/08/31 01:41:32;;;;;;;9.83;6.00;;;;;;;15.94;58.69;95151.09;5035660;28;20514;-70
2021/08/31 01:43:59;;;;;;;7.50;6.30;;;;;;;15.92;58.72;95153.25;5047583;28;20436;-71
2021/08/31 01:46:26;;;;;;;10.77;6.40;;;;;;;15.95;58.29;95152.66;5043768;28;20442;-70
2021/08/31 01:48:53;;;;;;;7.47;5.90;;;;;;;16.02;57.85;95150.50;5038284;28;20500;-70
2021/08/31 01:51:20;;;;;;;7.53;5.87;;;;;;;15.86;58.50;95143.78;5052700;28;20799;-70
2021/08/31 01:53:47;;;;;;;7.80;5.73;;;;;;;15.85;58.77;95147.50;5038794;28;20451;-71
2021/08/31 01:56:14;;;;;;;7.80;5.73;;;;;;;15.77;58.42;95156.03;5045841;28;20462;-72
2021/08/31 01:58:41;;;;;;;9.33;5.70;;;;;;;15.83;57.88;95149.66;5045915;28;20837;-71
2021/08/31 02:01:08;;;;;;;9.40;5.80;;;;;;;15.88;57.29;95142.44;5052268;28;20449;-71
2021/08/31 02:03:35;;;;;;;11.47;6.40;;;;;;;15.95;57.17;95152.66;5058911;28;20462;-71
2021/08/31 02:06:02;;;;;;;8.60;5.80;;;;;;;15.89;57.84;95143.25;5065678;28;20447;-70
2021/08/31 02:08:29;;;;;;;9.33;5.57;;;;;;;15.77;57.39;95135.69;5042985;28;20439;-71
2021/08/31 02:10:56;;;;;;;9.20;5.97;;;;;;;15.85;57.34;95142.22;5038953;28;20493;-71
2021/08/31 02:13:23;;;;;;;7.10;5.47;;;;;;;15.75;57.92;95137.03;5046095;28;20450;-71
2021/08/31 02:15:50;;;;;;;10.03;5.77;;;;;;;15.73;58.49;95144.50;5032213;28;20872;-70
2021/08/31 02:18:17;;;;;;;10.07;5.67;;;;;;;15.63;58.65;95140.09;5032658;28;20431;-71
2021/08/31 02:20:44;;;;;;;8.73;5.77;;;;;;;15.55;59.35;95142.53;5032558;28;20451;-70
2021/08/31 02:23:11;;;;;;;7.03;5.70;;;;;;;15.50;59.45;95139.97;5046204;28;20435;-71
2021/08/31 02:25:39;;;;;;;7.10;5.73;;;;;;;15.49;58.58;95148.97;5051487;28;20929;-70
2021/08/31 02:28:06;;;;;;;11.93;6.80;;;;;;;15.40;58.66;95147.97;5060698;28;20458;-70
2021/08/31 02:30:33;;;;;;;7.97;5.80;;;;;;;15.45;58.47;95150.59;5051568;28;20467;-71
2021/08/31 02:33:00;;;;;;;8.10;6.33;;;;;;;15.46;58.46;95150.28;5052724;28;20447;-70
2021/08/31 02:35:27;;;;;;;8.67;5.83;;;;;;;15.43;58.59;95152.72;5051788;28;20438;-70
2021/08/31 02:37:55;;;;;;;8.77;5.57;;;;;;;15.38;58.67;95148.25;5052292;28;20449;-71
2021/08/31 02:40:22;;;;;;;8.57;5.90;;;;;;;15.41;58.89;95152.19;5038064;28;20439;-70
2021/08/31 02:42:49;;;;;;;9.07;5.40;;;;;;;15.50;59.01;95153.16;5052261;28;20489;-69
2021/08/31 02:45:16;;;;;;;8.03;5.73;;;;;;;15.31;59.65;95162.84;5039354;28;20454;-70
2021/08/31 02:47:43;;;;;;;6.60;5.77;;;;;;;15.04;60.50;95161.47;5048061;28;20439;-70
2021/08/31 02:50:10;;;;;;;8.60;6.03;;;;;;;14.88;60.04;95162.66;5039483;28;20487;-70
2021/08/31 02:52:37;;;;;;;6.90;5.80;;;;;;;15.47;58.51;95172.22;5031458;28;20436;-71
2021/08/31 02:55:05;;;;;;;9.97;6.40;;;;;;;15.39;58.13;95170.94;5032227;28;20890;-70
2021/08/31 02:57:32;;;;;;;7.10;5.80;;;;;;;15.31;58.80;95171.53;5035989;28;20534;-70
2021/08/31 03:00:00;;;;;;;8.63;6.07;;;;;;;15.35;59.33;95169.91;5051468;28;20446;-69
2021/08/31 03:02:28;;;;;;;11.40;6.10;;;;;;;15.18;59.36;95143.91;5035303;28;20874;-70
2021/08/31 03:04:55;;;;;;;11.00;6.23;;;;;;;15.33;58.38;95160.72;5039827;28;20493;-70
2021/08/31 03:07:23;;;;;;;8.27;5.87;;;;;;;15.36;58.71;95170.69;5050936;28;20807;-72
2021/08/31 03:09:50;;;;;;;7.37;6.10;;;;;;;15.33;58.92;95169.41;5048792;28;20467;-70
2021/08/31 03:12:18;;;;;;;6.70;5.83;;;;;;;15.45;58.79;95169.06;5051519;28;20888;-69
2021/08/31 03:14:45;;;;;;;9.73;6.60;;;;;;;15.46;58.46;95175.91;5047800;28;20432;-70
2021/08/31 03:17:12;;;;;;;7.63;5.77;;;;;;;15.40;58.32;95177.00;5043161;28;21082;-70
2021/08/31 03:19:39;;;;;;;8.37;5.90;;;;;;;15.39;58.63;95173.56;5052577;28;20439;-70
2021/08/31 03:22:09;;;;;;;8.17;6.13;;;;;;;15.39;58.59;95180.69;5052178;28;21014;-70
2021/08/31 03:24:36;;;;;;;10.87;6.47;;;;;;;15.41;58.21;95179.41;5052219;28;20486;-71
2021/08/31 03:27:05;;;;;;;9.27;6.27;;;;;;;15.35;58.98;95174.38;5045267;28;20428;-71
2021/08/31 03:29:32;;;;;;;11.07;6.60;;;;;;;14.82;60.45;95182.19;5051401;28;20921;-70
2021/08/31 03:31:59;;;;;;;9.57;6.30;;;;;;;15.09;60.01;95182.53;5046904;28;20488;-71
2021/08/31 03:34:26;;;;;;;9.00;6.63;;;;;;;15.03;59.93;95174.94;5050928;28;20450;-72
2021/08/31 03:36:53;;;;;;;14.93;7.03;;;;;;;14.79;61.13;95182.75;5036804;28;20976;-69
2021/08/31 03:39:20;;;;;;;10.63;6.63;;;;;;;14.95;60.31;95189.50;5042163;28;20432;-73
2021/08/31 03:41:47;;;;;;;18.83;7.70;;;;;;;15.16;59.70;95190.16;5043975;28;20501;-72
2021/08/31 03:44:14;;;;;;;15.87;6.40;;;;;;;14.55;60.69;95202.94;5030568;28;20462;-71
2021/08/31 03:46:42;;;;;;;10.73;6.47;;;;;;;14.60;61.25;95200.28;5030645;28;20886;-71
2021/08/31 03:49:09;;;;;;;10.87;7.30;;;;;;;14.72;61.03;95202.59;5050362;28;20495;-70
2021/08/31 03:51:36;;;;;;;10.40;6.67;;;;;;;14.85;61.47;95186.16;5060288;28;20469;-70
2021/08/31 03:54:03;;;;;;;16.07;7.27;;;;;;;14.91;62.63;95201.66;5049872;28;20446;-71
2021/08/31 03:56:30;;;;;;;10.37;6.93;;;;;;;14.85;63.19;95202.75;5037942;28;20481;-71
2021/08/31 03:58:57;;;;;;;12.60;7.70;;;;;;;14.76;62.32;95195.72;5050278;28;20439;-72
2021/08/31 04:01:24;;;;;;;13.23;7.13;;;;;;;14.87;62.25;95210.41;5050363;28;20438;-72
2021/08/31 04:03:51;;;;;;;15.00;6.80;;;;;;;14.90;62.17;95200.09;5050220;28;20435;-71
2021/08/31 04:06:18;;;;;;;10.17;6.80;;;;;;;14.76;62.11;95203.63;5049871;28;20454;-70
2021/08/31 04:08:45;;;;;;;9.03;6.53;;;;;;;14.90;61.92;95202.75;5039258;28;20451;-71
2021/08/31 04:11:11;;;;;;;13.77;7.00;;;;;;;14.65;61.97;95176.50;5043097;28;20483;-71
2021/08/31 04:13:38;;;;;;;9.20;6.90;;;;;;;14.87;62.30;95213.06;5056065;28;20443;-71
2021/08/31 04:16:05;;;;;;;8.27;6.60;;;;;;;14.93;61.34;95210.09;5033702;28;20977;-71
2021/08/31 04:18:32;;;;;;;22.17;8.43;;;;;;;14.76;62.05;95204.41;5044209;28;21036;-72
2021/08/31 04:20:59;;;;;;;14.43;8.80;;;;;;;14.83;61.99;95204.91;5030032;28;20450;-70
2021/08/31 04:23:26;;;;;;;12.27;7.53;;;;;;;14.73;62.83;95204.16;5049263;28;20441;-72
2021/08/31 04:25:53;;;;;;;21.20;7.43;;;;;;;14.75;63.51;95210.75;5049992;28;20443;-70
2021/08/31 04:28:20;;;;;;;12.70;7.70;;;;;;;14.54;64.27;95205.88;5050088;28;20443;-72
2021/08/31 04:30:47;;;;;;;11.53;7.07;;;;;;;14.64;63.72;95211.88;5061136;28;20474;-71
2021/08/31 04:33:15;;;;;;;13.73;7.87;;;;;;;14.73;63.49;95215.50;5057972;28;20445;-71
2021/08/31 04:35:42;;;;;;;17.73;7.63;;;;;;;14.76;62.89;95219.47;5051299;28;20443;-70
2021/08/31 04:38:09;;;;;;;14.67;8.40;;;;;;;14.64;63.45;95201.31;5038461;28;20440;-71
2021/08/31 04:40:36;;;;;;;16.07;7.40;;;;;;;14.86;62.71;95222.81;5048781;28;20431;-70
2021/08/31 04:43:03;;;;;;;18.43;7.63;;;;;;;14.90;63.02;95215.13;5038463;28;20529;-69
2021/08/31 04:45:30;;;;;;;18.77;8.00;;;;;;;14.83;63.57;95223.38;5029549;28;20439;-70
2021/08/31 04:47:57;;;;;;;16.97;8.67;;;;;;;14.91;63.24;95217.50;5038222;28;20459;-71
2021/08/31 04:50:24;;;;;;;17.87;8.90;;;;;;;14.77;63.93;95218.38;5033795;28;20598;-72
2021/08/31 04:52:51;;;;;;;17.67;8.47;;;;;;;14.83;63.69;95219.94;5037811;28;20440;-70
2021/08/31 04:55:19;;;;;;;17.47;7.73;;;;;;;15.00;63.08;95226.41;5029776;28;20448;-70
2021/08/31 04:57:46;;;;;;;15.77;7.43;;;;;;;15.04;61.87;95216.88;5048950;28;20996;-71
2021/08/31 05:00:14;;;;;;;19.33;7.53;;;;;;;15.11;62.05;95222.63;5049716;28;20461;-70
2021/08/31 05:02:41;;;;;;;9.53;7.13;;;;;;;15.19;61.21;95219.41;5035886;28;20434;-70
2021/08/31 05:05:08;;;;;;;16.20;6.87;;;;;;;15.14;62.04;95206.25;5049925;28;20557;-71
2021/08/31 05:07:37;;;;;;;15.13;7.27;;;;;;;15.26;61.68;95224.38;5033014;28;20436;-71
2021/08/31 05:10:06;;;;;;;15.63;8.50;;;;;;;15.35;61.33;95225.34;5029593;28;20646;-70
2021/08/31 05:12:33;;;;;;;15.03;8.13;;;;;;;15.25;62.65;95222.81;5059761;28;20451;-70
2021/08/31 05:15:00;;;;;;;14.60;8.50;;;;;;;15.38;62.51;95221.38;5050462;28;20493;-72
2021/08/31 05:17:27;;;;;;;13.77;8.80;;;;;;;15.44;61.91;95215.03;5046590;28;21035;-71
2021/08/31 05:19:54;;;;;;;17.03;8.90;;;;;;;15.34;63.14;95215.06;5049085;28;20537;-72
2021/08/31 05:22:21;;;;;;;18.27;8.83;;;;;;;15.39;63.13;95217.66;5050220;28;20435;-69
2021/08/31 05:24:48;;;;;;;16.27;8.87;;;;;;;15.47;62.85;95209.19;5053240;28;20953;-70
2021/08/31 05:27:15;;;;;;;16.60;9.70;;;;;;;15.52;62.34;95196.72;5045699;28;20916;-70
2021/08/31 05:29:42;;;;;;;21.43;9.80;;;;;;;15.63;62.66;95216.69;5047687;28;20530;-71
2021/08/31 05:32:09;;;;;;;16.50;9.60;;;;;;;15.51;63.59;95210.22;5046646;28;20445;-70
2021/08/31 05:34:36;;;;;;;13.20;9.40;;;;;;;15.61;62.41;95215.41;5055998;28;20815;-70
2021/08/31 05:37:03;;;;;;;18.57;9.47;;;;;;;15.57;63.74;95209.09;5038910;28;20443;-72
2021/08/31 05:39:33;;;;;;;18.17;10.23;;;;;;;15.74;63.26;95206.81;5053483;28;20442;-71
2021/08/31 05:42:02;;;;;;;15.93;9.77;;;;;;;15.61;63.80;95210.91;5049270;28;20993;-70
2021/08/31 05:44:29;;;;;;;14.37;9.83;;;;;;;15.62;63.46;95216.97;5033220;28;20436;-71
2021/08/31 05:46:55;;;;;;;15.17;8.97;;;;;;;15.75;62.83;95206.53;5046664;28;20435;-72
2021/08/31 05:49:25;;;;;;;15.13;9.70;;;;;;;15.68;62.08;95210.56;5034956;28;20514;-70
2021/08/31 05:51:53;;;;;;;17.67;9.70;;;;;;;15.75;61.42;95205.75;5047615;28;21369;-70
2021/08/31 05:54:20;;;;;;;22.30;15.40;;;;;;;15.83;61.63;95213.06;5039572;28;20808;-71
2021/08/31 05:56:48;;;;;;;14.33;10.53;;;;;;;15.75;62.94;95209.16;5041564;28;20440;-71
2021/08/31 05:59:15;;;;;;;17.27;9.63;;;;;;;15.84;61.92;95198.78;5036674;28;20431;-70
2021/08/31 06:01:44;;;;;;;46.67;37.43;;;;;;;16.04;61.60;95214.41;5043428;28;20450;-70
2021/08/31 06:04:31;;;;;;;16.47;10.97;;;;;;;16.03;61.46;95212.84;5047027;28;20539;-70
2021/08/31 06:06:57;;;;;;;17.23;11.30;;;;;;;16.17;60.74;95211.09;5043677;28;20441;-71
2021/08/31 06:09:24;;;;;;;16.70;10.53;;;;;;;16.08;60.00;95207.50;5052753;28;20809;-71
2021/08/31 06:11:53;;;;;;;16.80;9.87;;;;;;;16.11;59.71;95212.25;5052572;28;20473;-71
2021/08/31 06:14:19;;;;;;;18.63;10.00;;;;;;;16.28;60.48;95209.91;5052570;28;20531;-71
2021/08/31 06:16:46;;;;;;;16.37;10.93;;;;;;;16.44;59.14;95208.66;5052300;28;20427;-71
2021/08/31 06:19:13;;;;;;;16.00;10.23;;;;;;;16.57;58.62;95223.84;5052485;28;20450;-70
2021/08/31 06:21:40;;;;;;;21.53;10.73;;;;;;;16.25;58.92;95221.06;5037841;28;20438;-71
2021/08/31 06:24:07;;;;;;;21.10;10.00;;;;;;;16.52;58.93;95216.00;5042915;28;20476;-72
2021/08/31 06:26:34;;;;;;;19.87;11.03;;;;;;;16.58;60.06;95220.16;5047854;28;20446;-71
2021/08/31 06:29:01;;;;;;;18.00;10.87;;;;;;;16.86;58.35;95210.53;5052962;28;20952;-72
2021/08/31 06:31:28;;;;;;;17.33;11.70;;;;;;;16.64;59.63;95197.84;5053796;28;20478;-70
2021/08/31 06:33:55;;;;;;;17.47;11.33;;;;;;;16.67;60.50;95210.50;5055214;28;21214;-70
2021/08/31 06:36:22;;;;;;;19.47;11.53;;;;;;;16.84;61.10;95208.13;5039747;28;20443;-71
2021/08/31 06:38:49;;;;;;;18.83;11.87;;;;;;;17.08;60.07;95208.06;5051131;28;20450;-72
2021/08/31 06:41:16;;;;;;;20.37;12.30;;;;;;;17.34;58.91;95200.50;5040668;28;20440;-70
2021/08/31 06:43:45;;;;;;;16.80;12.40;;;;;;;17.39;58.64;95203.09;5046015;28;20968;-69
2021/08/31 06:46:14;;;;;;;15.97;12.50;;;;;;;17.43;58.33;95198.75;5032283;28;20444;-71
2021/08/31 06:48:45;;;;;;;19.10;11.90;;;;;;;17.51;58.99;95200.78;5047941;28;20432;-71
2021/08/31 06:51:14;;;;;;;24.83;12.73;;;;;;;17.58;58.18;95201.19;5052689;28;20482;-71
2021/08/31 06:53:42;;;;;;;19.47;12.53;;;;;;;17.48;57.51;95206.69;5038721;28;20961;-70
2021/08/31 06:56:09;;;;;;;18.50;12.23;;;;;;;17.63;56.98;95198.44;5045389;28;20436;-72
2021/08/31 06:58:36;;;;;;;22.60;12.83;;;;;;;17.57;58.69;95204.94;5043738;28;20443;-70
2021/08/31 07:01:03;;;;;;;21.13;13.00;;;;;;;17.68;57.86;95206.34;5037074;28;20447;-70
2021/08/31 07:03:30;;;;;;;19.30;12.57;;;;;;;17.78;56.98;95201.63;5041664;28;20444;-70
2021/08/31 07:06:16;;;;;;;21.83;12.03;;;;;;;17.82;57.02;95191.22;5035826;28;20445;-71
2021/08/31 07:08:43;;;;;;;17.80;12.50;;;;;;;17.98;55.47;95200.47;5051512;28;20431;-70
2021/08/31 07:11:10;;;;;;;24.47;13.07;;;;;;;18.02;56.60;95199.59;5054800;28;20647;-71
2021/08/31 07:13:36;;;;;;;19.30;13.07;;;;;;;18.17;56.12;95209.91;5032358;28;20829;-71
2021/08/31 07:16:04;;;;;;;20.67;12.43;;;;;;;18.22;55.68;95206.38;5032432;28;20505;-72
2021/08/31 07:18:31;;;;;;;17.87;12.47;;;;;;;18.38;55.73;95215.59;5051381;28;20454;-71
2021/08/31 07:20:58;;;;;;;22.07;12.80;;;;;;;18.33;55.02;95217.56;5039849;28;20444;-70
2021/08/31 07:23:26;;;;;;;22.63;11.80;;;;;;;18.45;56.09;95213.34;5035025;28;20431;-70
2021/08/31 07:25:52;;;;;;;19.97;11.90;;;;;;;18.60;56.13;95218.38;5050839;28;20542;-71
2021/08/31 07:28:19;;;;;;;15.60;11.57;;;;;;;18.45;55.79;95209.94;5052804;28;20442;-72
2021/08/31 07:30:46;;;;;;;18.67;11.13;;;;;;;18.75;54.02;95207.44;5051993;28;20548;-72
2021/08/31 07:33:13;;;;;;;24.73;13.20;;;;;;;18.77;53.77;95207.91;5051286;28;20438;-71
2021/08/31 07:35:41;;;;;;;15.73;12.10;;;;;;;18.90;53.44;95207.06;5050965;28;20447;-71
2021/08/31 07:38:09;;;;;;;25.47;12.10;;;;;;;18.94;54.25;95208.06;5051549;28;20189;-72
2021/08/31 07:40:36;;;;;;;18.43;11.53;;;;;;;19.09;53.19;95215.69;5045115;28;20209;-70
2021/08/31 07:43:03;;;;;;;24.27;12.57;;;;;;;19.11;54.81;95212.72;5042395;28;20240;-70
2021/08/31 07:45:30;;;;;;;19.90;12.87;;;;;;;19.18;52.56;95210.44;5036713;28;20196;-70
2021/08/31 07:47:57;;;;;;;19.27;11.20;;;;;;;19.32;53.13;95208.56;5046805;28;20690;-71
2021/08/31 07:50:25;;;;;;;18.93;11.47;;;;;;;19.47;52.13;95199.44;5034347;28;20329;-70
2021/08/31 07:52:52;;;;;;;19.37;12.73;;;;;;;19.49;52.87;95194.59;5031986;28;20185;-70
2021/08/31 07:55:21;;;;;;;18.03;12.37;;;;;;;19.62;52.33;95207.00;5043896;28;20690;-70
2021/08/31 07:57:48;;;;;;;23.70;12.80;;;;;;;19.69;51.04;95202.06;5045913;28;20569;-71
2021/08/31 08:00:17;;;;;;;21.57;12.00;;;;;;;19.70;51.85;95193.00;5030972;28;20234;-72
2021/08/31 08:02:45;;;;;;;15.90;11.27;;;;;;;19.45;48.02;95201.59;5044503;28;20251;-71
2021/08/31 08:05:12;;;;;;;15.53;11.70;;;;;;;19.75;48.97;95200.84;5036488;28;20265;-70
2021/08/31 08:07:39;;;;;;;16.00;11.67;;;;;;;19.93;50.06;95202.50;5030751;28;20208;-70
2021/08/31 08:10:07;;;;;;;15.53;9.90;;;;;;;20.08;50.65;95194.09;5039236;28;20578;-70
2021/08/31 08:12:34;;;;;;;20.07;13.17;;;;;;;20.15;48.20;95189.13;5034923;28;20224;-71
2021/08/31 08:15:03;;;;;;;18.93;14.33;;;;;;;20.27;50.10;95192.03;5030660;28;20185;-70
2021/08/31 08:17:30;;;;;;;22.87;16.83;;;;;;;20.46;49.93;95184.56;5043677;28;20254;-71
2021/08/31 08:19:57;;;;;;;28.47;14.10;;;;;;;20.51;49.69;95181.75;5049992;28;20193;-70
2021/08/31 08:22:25;;;;;;;16.37;11.80;;;;;;;20.43;48.96;95190.50;5052731;28;20261;-72
2021/08/31 08:24:52;;;;;;;16.93;13.87;;;;;;;20.69;47.96;95175.34;5036841;28;20203;-71
2021/08/31 08:27:19;;;;;;;21.33;15.10;;;;;;;20.91;47.18;95169.13;5030251;28;20609;-70
2021/08/31 08:29:46;;;;;;;18.67;12.73;;;;;;;21.01;46.95;95166.94;5044538;28;20193;-70
2021/08/31 08:32:13;;;;;;;14.37;9.70;;;;;;;21.11;46.88;95168.53;5050039;28;20232;-72
2021/08/31 08:34:40;;;;;;;13.87;10.77;;;;;;;21.17;46.49;95176.03;5037524;28;20675;-71
2021/08/31 08:37:09;;;;;;;12.03;9.87;;;;;;;21.12;46.18;95165.53;5048222;28;20216;-71
2021/08/31 08:39:36;;;;;;;13.03;8.77;;;;;;;21.33;46.19;95170.22;5039294;28;20601;-71
2021/08/31 08:42:08;;;;;;;18.13;8.93;;;;;;;21.62;46.65;95157.75;5043161;28;20768;-72
2021/08/31 08:44:36;;;;;;;19.53;8.50;;;;;;;21.53;47.44;95153.56;5040204;28;20635;-71
2021/08/31 08:47:03;;;;;;;10.87;7.90;;;;;;;21.81;47.50;95155.53;5045713;28;20193;-71
2021/08/31 08:49:30;;;;;;;16.57;7.50;;;;;;;21.87;47.03;95153.50;5038411;28;20741;-70
2021/08/31 08:51:59;;;;;;;11.17;7.87;;;;;;;22.27;44.77;95159.28;5049459;28;20228;-72
2021/08/31 08:54:27;;;;;;;9.83;7.37;;;;;;;22.21;42.84;95150.66;5035602;28;20744;-70
2021/08/31 08:56:55;;;;;;;9.00;6.50;;;;;;;22.33;42.48;95145.44;5041942;28;20205;-71
2021/08/31 08:59:22;;;;;;;8.67;6.63;;;;;;;22.47;41.14;95140.63;5036895;28;20207;-70
2021/08/31 09:01:52;;;;;;;10.47;6.23;;;;;;;22.61;41.52;95135.84;5038919;28;20197;-71
2021/08/31 09:04:42;;;;;;;8.17;6.23;;;;;;;22.66;39.06;95138.31;5043536;28;20197;-72
2021/08/31 09:07:23;;;;;;;9.97;6.20;;;;;;;22.73;39.71;95146.63;5041401;28;20207;-73
2021/08/31 09:10:18;;;;;;;9.67;5.80;;;;;;;22.41;39.25;95131.22;5029801;28;20660;-71
2021/08/31 09:12:52;;;;;;;14.97;5.90;;;;;;;22.50;41.35;95123.94;5043759;28;20598;-72
2021/08/31 09:15:35;;;;;;;11.43;6.37;;;;;;;22.64;42.33;95110.38;5032295;28;20199;-72
2021/08/31 09:20:35;;;;;;;9.83;6.47;;;;;;;23.16;40.93;95118.78;5048997;28;20200;-71
2021/08/31 09:23:04;;;;;;;8.70;6.47;;;;;;;22.51;39.76;95120.19;5049124;28;20279;-69
2021/08/31 09:25:36;;;;;;;7.20;6.27;;;;;;;22.74;39.81;95123.34;5048606;28;20191;-70
2021/08/31 09:28:25;;;;;;;12.67;5.83;;;;;;;23.25;39.76;95124.81;5049742;28;20287;-73
2021/08/31 09:30:57;;;;;;;6.93;5.13;;;;;;;23.22;39.35;95117.44;5052090;28;20192;-69
2021/08/31 09:33:28;;;;;;;7.73;5.77;;;;;;;23.25;40.04;95122.91;5044305;28;20284;-70
2021/08/31 09:36:09;;;;;;;6.77;5.17;;;;;;;23.41;39.33;95120.44;5049390;28;20206;-70
2021/08/31 09:38:46;;;;;;;9.37;5.90;;;;;;;23.47;38.78;95111.84;5035098;28;20204;-71
2021/08/31 09:41:34;;;;;;;9.80;5.70;;;;;;;23.59;36.79;95111.91;5038195;28;20196;-70
2021/08/31 09:44:07;;;;;;;6.77;5.40;;;;;;;23.85;38.34;95098.19;5048756;28;20234;-70
2021/08/31 09:47:00;;;;;;;8.47;5.47;;;;;;;24.04;38.54;95106.50;5048592;28;20626;-70
2021/08/31 09:49:29;;;;;;;7.50;5.17;;;;;;;24.32;36.97;95103.94;5042884;28;20197;-71
2021/08/31 09:52:10;;;;;;;5.50;4.60;;;;;;;24.51;36.57;95102.22;5028776;28;20209;-70
2021/08/31 09:54:38;;;;;;;8.97;5.50;;;;;;;24.43;35.39;95097.78;5029325;28;20220;-70
2021/08/31 09:57:32;;;;;;;6.40;5.27;;;;;;;24.36;36.05;95097.56;5042302;28;20234;-72
2021/08/31 10:00:01;;;;;;;7.67;5.20;;;;;;;24.50;34.80;95086.50;5038936;28;20334;-70
2021/08/31 10:02:30;;;;;;;5.97;5.33;;;;;;;24.49;34.51;95075.00;5048486;28;20244;-70
2021/08/31 10:04:58;;;;;;;5.77;4.63;;;;;;;24.80;34.65;95080.53;5041109;28;20259;-71
2021/08/31 10:07:25;;;;;;;12.03;4.93;;;;;;;25.04;36.11;95072.38;5028918;28;20543;-71
2021/08/31 10:09:54;;;;;;;8.93;5.23;;;;;;;25.14;36.38;95073.03;5045492;28;20228;-71
2021/08/31 10:12:22;;;;;;;11.80;5.47;;;;;;;25.50;31.03;95070.16;5045758;28;20228;-72
2021/08/31 10:14:55;;;;;;;9.03;5.10;;;;;;;25.66;35.61;95065.59;5053234;28;20197;-69
2021/08/31 10:17:24;;;;;;;8.20;4.70;;;;;;;25.66;35.61;95065.59;5042376;28;20220;-70
2021/08/31 10:19:54;;;;;;;7.40;4.77;;;;;;;25.78;34.78;95057.47;5047075;28;20208;-71
2021/08/31 10:22:23;;;;;;;10.97;5.03;;;;;;;25.76;34.80;95057.03;5041565;28;20196;-71
2021/08/31 10:24:50;;;;;;;7.23;4.60;;;;;;;25.70;32.95;95048.44;5051273;28;20270;-74
2021/08/31 10:27:28;;;;;;;5.87;4.93;;;;;;;25.65;33.75;95058.66;5039901;28;20201;-71
2021/08/31 10:30:33;;;;;;;6.47;5.30;;;;;;;25.39;32.26;95059.16;5052486;28;20254;-69
2021/08/31 10:33:02;;;;;;;6.37;4.97;;;;;;;25.43;33.03;95045.84;5034762;28;20526;-70
2021/08/31 10:35:32;;;;;;;10.10;5.07;;;;;;;25.70;34.55;95048.44;5054484;28;20724;-72
2021/08/31 10:38:00;;;;;;;12.80;5.43;;;;;;;26.01;35.63;95042.28;5052174;28;20275;-73
2021/08/31 10:40:34;;;;;;;10.50;5.30;;;;;;;26.00;32.30;95040.72;5051720;28;20201;-72
2021/08/31 10:43:02;;;;;;;9.80;4.67;;;;;;;26.11;35.04;95039.09;5052207;28;20224;-71
2021/08/31 10:45:36;;;;;;;9.57;4.70;;;;;;;26.31;34.85;95040.69;5051582;28;20196;-71
2021/08/31 10:48:24;;;;;;;11.67;5.00;;;;;;;26.47;34.88;95029.91;5041266;28;20200;-72
2021/08/31 10:51:04;;;;;;;9.57;4.73;;;;;;;27.04;33.88;95028.00;5037144;28;20724;-71
2021/08/31 10:53:44;;;;;;;9.10;4.83;;;;;;;-140.05;100.00;61859.38;5054610;28;20192;-71
2021/08/31 10:56:21;;;;;;;8.57;5.23;;;;;;;-140.05;100.00;61859.38;5032199;28;20702;-70
2021/08/31 10:59:00;;;;;;;7.13;4.40;;;;;;;-140.05;100.00;61859.38;5045478;28;20199;-70
2021/08/31 11:01:37;;;;;;;9.50;5.17;;;;;;;-140.05;100.00;61859.38;5039016;28;20196;-71
2021/08/31 11:04:30;;;;;;;9.80;5.37;;;;;;;-140.05;100.00;61859.38;5036303;28;20232;-73
2021/08/31 11:07:02;;;;;;;10.57;4.63;;;;;;;-140.05;100.00;61859.38;5042202;28;20196;-72
2021/08/31 11:09:30;;;;;;;7.20;4.80;;;;;;;-140.05;100.00;61859.38;5049896;28;20227;-69
2021/08/31 11:12:07;;;;;;;7.40;4.97;;;;;;;-140.05;100.00;61859.38;5050805;28;20208;-69
2021/08/31 11:14:54;;;;;;;6.40;4.70;;;;;;;-140.05;100.00;61859.38;5047834;28;20184;-71
2021/08/31 11:17:49;;;;;;;6.90;4.70;;;;;;;-140.05;100.00;61859.38;5033638;28;20280;-71
2021/08/31 11:20:24;;;;;;;9.00;4.57;;;;;;;-140.05;100.00;61859.38;5035099;28;20212;-69
2021/08/31 11:23:01;;;;;;;7.20;4.57;;;;;;;-140.05;100.00;61859.38;5051236;28;20287;-72
2021/08/31 11:25:41;;;;;;;4.47;4.07;;;;;;;-140.05;100.00;61859.38;5051170;28;20200;-71
2021/08/31 11:28:22;;;;;;;8.03;4.37;;;;;;;-140.05;100.00;61859.38;5050022;28;20289;-71
2021/08/31 11:31:07;;;;;;;10.23;4.63;;;;;;;-140.05;100.00;61859.38;5039508;28;20228;-72
2021/08/31 11:33:35;;;;;;;8.83;4.17;;;;;;;-140.05;100.00;61859.38;5050405;28;20231;-71
2021/08/31 11:36:05;;;;;;;8.63;4.30;;;;;;;-140.05;100.00;61859.38;5040977;28;20576;-71